createdAt,value
2018-09-11T00:01:01.776Z,59.80
2018-09-11T00:03:33.494Z,59.90
2018-09-11T00:06:05.333Z,61.00
2018-09-11T00:08:37.233Z,61.60
2018-09-11T00:11:09.473Z,61.20
2018-09-11T00:13:41.273Z,61.30
2018-09-11T00:16:13.913Z,61.50
2018-09-11T00:18:45.393Z,62.10
2018-09-11T00:21:17.017Z,62.30
2018-09-11T00:23:49.514Z,62.90
2018-09-11T00:26:21.594Z,62.70
2018-09-11T00:28:53.974Z,62.70
2018-09-11T00:31:25.494Z,62.80
2018-09-11T00:33:57.333Z,62.60
2018-09-11T00:36:29.573Z,62.30
2018-09-11T00:39:01.433Z,62.20
2018-09-11T00:41:33.233Z,61.50
2018-09-11T00:44:04.854Z,61.20
2018-09-11T00:46:37.474Z,61.10
2018-09-11T00:49:08.873Z,61.30
2018-09-11T00:51:40.731Z,61.50
2018-09-11T00:54:12.653Z,61.50
2018-09-11T00:56:44.155Z,61.40
2018-09-11T00:59:15.933Z,61.40
2018-09-11T01:01:48.433Z,61.10
2018-09-11T01:04:20.102Z,61.10
2018-09-11T01:06:52.957Z,60.90
2018-09-11T01:09:25.515Z,60.80
2018-09-11T01:11:57.353Z,59.80
2018-09-11T01:14:29.553Z,59.40
2018-09-11T01:17:00.656Z,58.90
2018-09-11T01:19:32.732Z,59.10
2018-09-11T01:22:03.713Z,59.40
2018-09-11T01:24:35.252Z,59.20
2018-09-11T01:27:06.713Z,58.90
2018-09-11T01:29:39.253Z,59.10
2018-09-11T01:32:10.713Z,59.80
2018-09-11T01:34:42.033Z,59.40
2018-09-11T01:37:13.753Z,59.40
2018-09-11T01:39:45.853Z,59.30
2018-09-11T01:42:16.713Z,59.60
2018-09-11T01:44:48.935Z,59.80
2018-09-11T01:47:20.835Z,59.50
2018-09-11T01:49:53.774Z,59.80
2018-09-11T01:52:25.414Z,60.30
2018-09-11T01:54:57.833Z,60.10
2018-09-11T01:57:30.553Z,60.50
2018-09-11T02:00:02.199Z,60.90
2018-09-11T02:02:34.374Z,61.40
2018-09-11T02:05:05.974Z,61.60
2018-09-11T02:07:37.634Z,61.60
2018-09-11T02:10:08.376Z,61.50
2018-09-11T02:12:39.714Z,61.50
2018-09-11T02:15:12.393Z,61.40
2018-09-11T02:17:44.201Z,61.50
2018-09-11T02:20:17.115Z,61.50
2018-09-11T02:22:48.995Z,61.80
2018-09-11T02:25:21.014Z,60.70
2018-09-11T02:27:53.533Z,61.20
2018-09-11T02:30:24.955Z,61.20
2018-09-11T02:32:56.895Z,61.40
2018-09-11T02:35:28.974Z,61.70
2018-09-11T02:38:00.154Z,61.70
2018-09-11T02:40:32.099Z,61.70
2018-09-11T02:43:04.354Z,61.70
2018-09-11T02:45:36.474Z,61.90
2018-09-11T02:48:08.095Z,61.80
2018-09-11T02:50:40.496Z,62.70
2018-09-11T02:53:11.654Z,61.70
2018-09-11T02:55:44.336Z,61.60
2018-09-11T02:58:16.095Z,62.20
2018-09-11T03:00:48.173Z,61.10
2018-09-11T03:03:19.735Z,61.10
2018-09-11T03:05:51.594Z,61.30
2018-09-11T03:08:24.053Z,61.60
2018-09-11T03:10:55.654Z,62.00
2018-09-11T03:13:27.254Z,62.20
2018-09-11T03:15:59.033Z,62.60
2018-09-11T03:18:31.084Z,62.70
2018-09-11T03:21:03.327Z,63.00
2018-09-11T03:23:34.744Z,63.10
2018-09-11T03:26:07.824Z,62.90
2018-09-11T03:28:39.184Z,62.90
2018-09-11T03:31:11.587Z,62.90
2018-09-11T03:33:45.205Z,62.50
2018-09-11T03:36:17.524Z,62.60
2018-09-11T03:38:49.184Z,62.10
2018-09-11T03:41:21.649Z,62.50
2018-09-11T03:43:52.804Z,62.10
2018-09-11T03:46:24.744Z,62.50
2018-09-11T03:48:57.045Z,62.10
2018-09-11T03:51:28.885Z,62.20
2018-09-11T03:54:00.384Z,62.30
2018-09-11T03:56:31.730Z,62.10
2018-09-11T03:59:03.312Z,62.70
2018-09-11T04:01:35.305Z,62.90
2018-09-11T04:04:07.408Z,63.00
2018-09-11T04:06:39.185Z,62.80
2018-09-11T04:09:13.744Z,62.80
2018-09-11T04:11:45.484Z,62.70
2018-09-11T04:14:17.724Z,62.60
2018-09-11T04:16:49.407Z,62.80
2018-09-11T04:19:22.106Z,62.90
2018-09-11T04:21:53.146Z,63.00
2018-09-11T04:24:25.106Z,63.10
2018-09-11T04:26:56.504Z,63.10
2018-09-11T04:29:28.944Z,62.80
2018-09-11T04:32:00.904Z,62.80
2018-09-11T04:34:32.904Z,63.20
2018-09-11T04:37:04.288Z,63.70
2018-09-11T04:39:36.324Z,63.70
2018-09-11T04:42:07.923Z,63.90
2018-09-11T04:44:40.504Z,64.20
2018-09-11T04:47:12.044Z,64.20
2018-09-11T04:49:44.024Z,64.60
2018-09-11T04:52:15.184Z,64.60
2018-09-11T04:54:46.924Z,64.30
2018-09-11T04:57:18.824Z,64.20
2018-09-11T04:59:50.804Z,64.40
2018-09-11T05:02:22.547Z,64.50
2018-09-11T05:04:54.544Z,64.70
2018-09-11T05:07:26.224Z,65.00
2018-09-11T05:09:58.585Z,65.60
2018-09-11T05:12:30.725Z,66.10
2018-09-11T05:15:02.432Z,66.30
2018-09-11T05:17:34.504Z,66.60
2018-09-11T05:20:06.244Z,66.80
2018-09-11T05:22:37.826Z,66.80
2018-09-11T05:25:10.005Z,66.80
2018-09-11T05:27:41.729Z,67.00
2018-09-11T05:30:13.104Z,67.10
2018-09-11T05:32:45.344Z,66.90
2018-09-11T05:35:17.284Z,67.00
2018-09-11T05:37:49.464Z,66.80
2018-09-11T05:40:20.944Z,66.30
2018-09-11T05:42:51.804Z,66.00
2018-09-11T05:45:23.204Z,65.70
2018-09-11T05:47:54.704Z,65.80
2018-09-11T05:50:26.585Z,66.20
2018-09-11T05:52:58.084Z,66.30
2018-09-11T05:55:29.684Z,66.50
2018-09-11T05:58:01.565Z,66.50
2018-09-11T06:00:33.465Z,66.70
2018-09-11T06:03:04.944Z,66.90
2018-09-11T06:05:36.586Z,67.10
2018-09-11T06:08:08.244Z,67.20
2018-09-11T06:10:40.204Z,66.70
2018-09-11T06:13:11.624Z,66.70
2018-09-11T06:15:43.385Z,67.10
2018-09-11T06:18:15.025Z,67.20
2018-09-11T06:20:46.484Z,66.90
2018-09-11T06:23:18.284Z,66.80
2018-09-11T06:25:50.436Z,66.70
2018-09-11T06:28:22.107Z,66.90
2018-09-11T06:30:53.584Z,67.00
2018-09-11T06:33:25.584Z,67.20
2018-09-11T06:35:56.944Z,67.20
2018-09-11T06:38:29.044Z,69.00
2018-09-11T06:41:00.794Z,65.50
2018-09-11T06:43:33.188Z,65.10
2018-09-11T06:46:04.386Z,64.60
2018-09-11T06:48:36.666Z,64.40
2018-09-11T06:51:08.724Z,64.40
2018-09-11T06:53:41.385Z,64.70
2018-09-11T06:56:13.005Z,64.40
2018-09-11T06:58:44.503Z,64.60
2018-09-11T07:01:16.164Z,63.50
2018-09-11T07:03:47.324Z,63.00
2018-09-11T07:06:19.124Z,63.20
2018-09-11T07:08:50.585Z,63.40
2018-09-11T07:11:21.623Z,63.70
2018-09-11T07:13:52.804Z,64.30
2018-09-11T07:16:24.132Z,64.50
2018-09-11T07:18:55.824Z,64.60
2018-09-11T07:21:27.244Z,64.50
2018-09-11T07:23:58.824Z,63.50
2018-09-11T07:26:30.204Z,63.60
2018-09-11T07:29:02.196Z,63.40
2018-09-11T07:31:34.179Z,63.60
2018-09-11T07:34:05.436Z,64.00
2018-09-11T07:36:37.438Z,63.90
2018-09-11T07:39:10.236Z,63.20
2018-09-11T07:41:42.070Z,62.80
2018-09-11T07:44:13.909Z,62.60
2018-09-11T07:46:46.829Z,62.70
2018-09-11T07:49:18.629Z,61.20
2018-09-11T07:51:50.869Z,61.30
2018-09-11T07:54:21.929Z,61.30
2018-09-11T07:56:54.449Z,60.70
2018-09-11T07:59:26.430Z,60.70
2018-09-11T08:01:57.698Z,60.50
2018-09-11T08:04:28.962Z,59.30
2018-09-11T08:07:00.924Z,58.70
2018-09-11T08:09:32.730Z,57.30
2018-09-11T08:12:05.123Z,55.60
2018-09-11T08:14:42.357Z,55.30
2018-09-11T08:17:14.458Z,54.80
2018-09-11T08:19:46.316Z,54.00
2018-09-11T08:22:17.776Z,53.20
2018-09-11T08:24:49.657Z,52.90
2018-09-11T08:27:21.299Z,52.40
2018-09-11T08:29:52.502Z,52.40
2018-09-11T08:32:23.800Z,52.70
2018-09-11T08:34:55.847Z,53.50
2018-09-11T08:37:28.024Z,52.00
2018-09-11T08:39:59.325Z,51.90
2018-09-11T08:42:31.905Z,51.80
2018-09-11T08:45:03.943Z,52.50
2018-09-11T08:47:35.164Z,50.50
2018-09-11T08:50:07.792Z,51.00
2018-09-11T08:52:39.259Z,51.60
2018-09-11T08:55:13.013Z,51.10
2018-09-11T08:57:44.052Z,50.90
2018-09-11T09:00:16.371Z,50.80
2018-09-11T09:02:48.072Z,51.20
2018-09-11T09:05:19.712Z,51.10
2018-09-11T09:07:51.331Z,51.50
2018-09-11T09:10:23.973Z,50.90
2018-09-11T09:12:55.571Z,50.60
2018-09-11T09:15:27.492Z,51.20
2018-09-11T09:17:59.202Z,51.60
2018-09-11T09:20:31.102Z,51.70
2018-09-11T09:23:02.243Z,51.70
2018-09-11T09:25:34.702Z,51.80
2018-09-11T09:28:07.022Z,51.40
2018-09-11T09:30:37.822Z,51.40
2018-09-11T09:33:09.562Z,51.60
2018-09-11T09:35:40.821Z,51.50
2018-09-11T09:38:12.346Z,51.80
2018-09-11T09:40:43.703Z,51.70
2018-09-11T09:43:15.563Z,51.30
2018-09-11T09:45:47.021Z,51.80
2018-09-11T09:48:18.925Z,50.70
2018-09-11T09:50:50.940Z,51.20
2018-09-11T09:53:22.539Z,50.40
2018-09-11T09:55:54.158Z,50.50
2018-09-11T09:58:26.338Z,49.90
2018-09-11T10:00:58.225Z,50.20
2018-09-11T10:03:30.557Z,50.60
2018-09-11T10:06:02.141Z,51.60
2018-09-11T10:08:33.825Z,54.30
2018-09-11T10:11:05.387Z,55.70
2018-09-11T10:13:38.814Z,56.10
2018-09-11T10:16:11.155Z,56.80
2018-09-11T10:18:42.455Z,56.70
2018-09-11T10:21:15.144Z,56.50
2018-09-11T10:23:47.436Z,56.80
2018-09-11T10:26:19.675Z,56.60
2018-09-11T10:28:51.134Z,56.60
2018-09-11T10:31:23.834Z,56.60
2018-09-11T10:33:55.929Z,56.90
2018-09-11T10:36:27.314Z,57.10
2018-09-11T10:38:58.954Z,57.50
2018-09-11T10:41:30.623Z,56.90
2018-09-11T10:44:02.636Z,56.70
2018-09-11T10:46:34.394Z,56.60
2018-09-11T10:49:06.614Z,56.90
2018-09-11T10:51:38.318Z,56.80
2018-09-11T10:54:09.997Z,56.70
2018-09-11T10:56:41.976Z,56.60
2018-09-11T11:06:20.497Z,56.60
2018-09-11T11:08:52.775Z,56.50
2018-09-11T11:11:24.755Z,56.70
2018-09-11T11:13:57.016Z,56.80
2018-09-11T11:16:29.265Z,57.10
2018-09-11T11:19:01.630Z,57.10
2018-09-11T11:21:32.841Z,57.70
2018-09-11T11:24:04.162Z,56.90
2018-09-11T11:26:36.301Z,57.40
2018-09-11T11:29:08.643Z,57.50
2018-09-11T11:31:41.482Z,57.30
2018-09-11T11:34:13.463Z,56.60
2018-09-11T11:36:46.021Z,57.20
2018-09-11T11:39:17.142Z,57.00
2018-09-11T11:41:49.957Z,56.20
2018-09-11T11:44:22.123Z,56.40
2018-09-11T11:46:54.062Z,56.60
2018-09-11T11:49:26.502Z,56.30
2018-09-11T11:51:57.783Z,56.20
2018-09-11T11:54:29.464Z,56.00
2018-09-11T11:57:01.084Z,55.90
2018-09-11T11:59:33.601Z,53.80
2018-09-11T12:02:06.135Z,54.80
2018-09-11T12:04:37.582Z,54.30
2018-09-11T12:07:09.502Z,54.10
2018-09-11T12:09:40.801Z,53.80
2018-09-11T12:12:13.769Z,53.40
2018-09-11T12:14:45.502Z,52.60
2018-09-11T12:17:17.758Z,53.10
2018-09-11T12:19:50.257Z,52.50
2018-09-11T12:22:22.038Z,52.60
2018-09-11T12:24:53.857Z,53.10
2018-09-11T12:27:25.031Z,53.10
2018-09-11T12:29:56.433Z,52.20
2018-09-11T12:32:28.569Z,51.60
2018-09-11T12:34:59.633Z,50.20
2018-09-11T12:37:31.102Z,50.20
2018-09-11T12:40:02.872Z,49.40
2018-09-11T12:42:35.000Z,50.60
2018-09-11T12:45:07.691Z,49.00
2018-09-11T12:47:40.406Z,50.20
2018-09-11T12:50:12.467Z,50.10
2018-09-11T12:52:44.788Z,49.10
2018-09-11T12:55:16.148Z,48.00
2018-09-11T12:57:47.647Z,48.40
2018-09-11T13:00:19.247Z,48.60
2018-09-11T13:02:51.154Z,48.40
2018-09-11T13:05:22.807Z,49.20
2018-09-11T13:07:54.115Z,48.90
2018-09-11T13:10:26.188Z,48.70
2018-09-11T13:12:57.827Z,47.40
2018-09-11T13:15:29.368Z,46.90
2018-09-11T13:18:00.867Z,47.20
2018-09-11T13:20:32.528Z,47.20
2018-09-11T13:23:04.828Z,46.20
2018-09-11T13:25:36.949Z,46.20
2018-09-11T13:28:09.068Z,45.30
2018-09-11T13:30:41.948Z,44.90
2018-09-11T13:33:13.427Z,44.20
2018-09-11T13:35:45.548Z,43.70
2018-09-11T13:38:17.469Z,43.80
2018-09-11T13:40:49.825Z,43.90
2018-09-11T13:43:21.732Z,44.20
2018-09-11T13:45:53.648Z,44.10
2018-09-11T13:48:24.427Z,44.60
2018-09-11T13:50:57.306Z,44.70
2018-09-11T13:53:29.506Z,44.50
2018-09-11T13:56:01.488Z,44.40
2018-09-11T13:58:33.766Z,45.00
2018-09-11T14:01:05.506Z,44.80
2018-09-11T14:03:37.866Z,45.10
2018-09-11T14:06:10.346Z,45.50
2018-09-11T14:08:42.783Z,45.70
2018-09-11T14:11:15.368Z,47.30
2018-09-11T14:13:46.781Z,46.90
2018-09-11T14:16:19.380Z,46.80
2018-09-11T14:18:50.747Z,47.00
2018-09-11T14:21:22.765Z,47.20
2018-09-11T14:23:52.895Z,47.20
2018-09-11T14:26:24.590Z,47.40
2018-09-11T14:28:56.359Z,47.00
2018-09-11T14:31:28.163Z,46.80
2018-09-11T14:33:59.504Z,44.90
2018-09-11T14:36:31.684Z,42.30
2018-09-11T14:39:03.106Z,44.10
2018-09-11T14:41:33.704Z,43.30
2018-09-11T14:44:05.275Z,43.20
2018-09-11T14:46:36.874Z,42.80
2018-09-11T14:49:08.335Z,43.40
2018-09-11T14:51:41.073Z,43.30
2018-09-11T14:54:12.933Z,43.70
2018-09-11T14:56:45.933Z,44.00
2018-09-11T14:59:17.774Z,44.10
2018-09-11T15:01:49.454Z,44.20
2018-09-11T15:04:21.692Z,45.20
2018-09-11T15:06:55.186Z,45.00
2018-09-11T15:09:26.973Z,45.40
2018-09-11T15:12:00.785Z,45.90
2018-09-11T15:14:33.107Z,46.60
2018-09-11T15:17:04.506Z,45.50
2018-09-11T15:19:36.727Z,45.60
2018-09-11T15:22:08.754Z,44.70
2018-09-11T15:24:40.864Z,44.70
2018-09-11T15:27:12.056Z,44.80
2018-09-11T15:29:44.719Z,44.30
2018-09-11T15:32:16.773Z,44.70
2018-09-11T15:34:49.193Z,44.60
2018-09-11T15:37:23.684Z,43.80
2018-09-11T15:39:55.163Z,43.60
2018-09-11T15:42:27.673Z,43.10
2018-09-11T15:45:00.665Z,43.30
2018-09-11T15:47:32.096Z,43.00
2018-09-11T15:50:04.223Z,43.20
2018-09-11T15:52:36.019Z,42.70
2018-09-11T15:55:08.360Z,43.00
2018-09-11T15:57:40.378Z,42.60
2018-09-11T16:00:15.057Z,43.10
2018-09-11T16:02:47.237Z,42.60
2018-09-11T16:05:20.447Z,42.20
2018-09-11T16:07:52.097Z,43.20
2018-09-11T16:10:24.559Z,42.10
2018-09-11T16:12:56.917Z,42.70
2018-09-11T16:15:29.586Z,42.90
2018-09-11T16:18:03.318Z,42.80
2018-09-11T16:20:36.939Z,42.60
2018-09-11T16:23:09.023Z,43.90
2018-09-11T16:25:42.037Z,49.50
2018-09-11T16:28:13.998Z,50.60
2018-09-11T16:30:47.901Z,50.50
2018-09-11T16:33:20.638Z,50.20
2018-09-11T16:35:53.458Z,50.50
2018-09-11T16:38:25.458Z,51.00
2018-09-11T16:40:57.960Z,51.10
2018-09-11T16:43:30.885Z,50.90
2018-09-11T16:46:05.558Z,50.90
2018-09-11T16:48:37.338Z,51.10
2018-09-11T16:51:09.018Z,51.30
2018-09-11T16:53:40.498Z,51.40
2018-09-11T16:56:13.426Z,51.60
2018-09-11T16:58:45.767Z,51.90
2018-09-11T17:01:19.198Z,51.90
2018-09-11T17:03:50.862Z,52.00
2018-09-11T17:06:23.958Z,52.00
2018-09-11T17:08:57.847Z,51.80
2018-09-11T17:11:31.919Z,51.80
2018-09-11T17:14:05.525Z,52.10
2018-09-11T17:16:37.768Z,52.10
2018-09-11T17:19:09.586Z,51.90
2018-09-11T17:21:43.066Z,52.10
2018-09-11T17:24:15.486Z,52.00
2018-09-11T17:26:48.027Z,52.00
2018-09-11T17:29:20.287Z,52.00
2018-09-11T17:31:52.787Z,52.10
2018-09-11T17:34:23.646Z,52.10
2018-09-11T17:36:57.107Z,52.00
2018-09-11T17:39:28.647Z,52.00
2018-09-11T17:42:01.267Z,52.10
2018-09-11T17:44:33.107Z,52.30
2018-09-11T17:47:06.703Z,52.30
2018-09-11T17:49:43.906Z,52.10
2018-09-11T17:52:16.487Z,52.20
2018-09-11T17:54:49.768Z,52.20
2018-09-11T17:57:21.386Z,52.30
2018-09-11T17:59:53.386Z,52.20
2018-09-11T18:02:25.786Z,52.10
2018-09-11T18:05:19.265Z,52.00
2018-09-11T18:07:51.386Z,51.90
2018-09-11T18:10:22.867Z,51.70
2018-09-11T18:12:58.347Z,51.80
2018-09-11T18:15:31.425Z,51.80
2018-09-11T18:18:05.586Z,51.90
2018-09-11T18:20:39.826Z,52.00
2018-09-11T18:23:11.669Z,51.90
2018-09-11T18:25:57.746Z,51.90
2018-09-11T18:28:29.587Z,52.10
2018-09-11T18:31:03.286Z,52.10
2018-09-11T18:33:36.026Z,52.00
2018-09-11T18:36:11.026Z,52.40
2018-09-11T18:38:46.246Z,52.70
2018-09-11T18:41:19.026Z,52.80
2018-09-11T18:43:50.187Z,53.20
2018-09-11T18:46:22.232Z,53.40
2018-09-11T18:48:54.588Z,53.70
2018-09-11T18:51:30.812Z,53.80
2018-09-11T18:54:04.767Z,54.20
2018-09-11T18:56:39.606Z,54.10
2018-09-11T18:59:11.966Z,54.70
2018-09-11T19:01:46.466Z,54.60
2018-09-11T19:04:20.146Z,55.20
2018-09-11T19:06:52.089Z,55.40
2018-09-11T19:09:25.708Z,55.20
2018-09-11T19:12:11.887Z,55.40
2018-09-11T19:14:43.726Z,55.20
2018-09-11T19:17:18.547Z,56.10
2018-09-11T19:19:53.169Z,56.90
2018-09-11T19:22:26.586Z,57.50
2018-09-11T19:24:58.106Z,57.50
2018-09-11T19:27:38.432Z,57.80
2018-09-11T19:30:12.786Z,58.00
2018-09-11T19:32:48.446Z,58.30
2018-09-11T19:35:29.847Z,59.20
2018-09-11T19:38:04.274Z,58.70
2018-09-11T19:40:35.906Z,59.00
2018-09-11T19:43:12.228Z,59.10
2018-09-11T19:45:44.330Z,59.10
2018-09-11T19:48:16.627Z,59.10
2018-09-11T19:50:55.006Z,58.90
2018-09-11T19:53:40.766Z,59.00
2018-09-11T19:56:18.226Z,59.20
2018-09-11T19:58:52.639Z,59.40
2018-09-11T20:01:26.545Z,59.50
2018-09-11T20:04:00.027Z,59.50
2018-09-11T20:06:33.925Z,59.50
2018-09-11T20:09:09.935Z,59.40
2018-09-11T20:11:41.546Z,59.60
2018-09-11T20:14:13.908Z,59.80
2018-09-11T20:16:47.046Z,59.80
2018-09-11T20:19:21.145Z,59.90
2018-09-11T20:21:54.746Z,60.30
2018-09-11T20:24:26.985Z,59.90
2018-09-11T20:26:58.405Z,60.10
2018-09-11T20:29:31.333Z,60.20
2018-09-11T20:32:05.089Z,60.20
2018-09-11T20:34:38.367Z,60.80
2018-09-11T20:37:09.707Z,61.40
2018-09-11T20:39:43.006Z,61.90
2018-09-11T20:42:30.068Z,61.50
2018-09-11T20:45:04.653Z,61.20
2018-09-11T20:47:36.846Z,61.30
2018-09-11T20:50:19.466Z,61.40
2018-09-11T20:52:54.926Z,61.70
2018-09-11T20:55:30.706Z,61.40
2018-09-11T20:58:03.031Z,61.60
2018-09-11T21:00:35.106Z,61.80
2018-09-11T21:03:08.826Z,62.10
2018-09-11T21:05:41.566Z,62.40
2018-09-11T21:08:14.866Z,62.40
2018-09-11T21:10:46.667Z,62.60
2018-09-11T21:13:18.547Z,63.10
2018-09-11T21:15:50.588Z,63.20
2018-09-11T21:18:22.406Z,63.50
2018-09-11T21:20:54.092Z,63.80
2018-09-11T21:23:27.146Z,64.20
2018-09-11T21:25:59.126Z,64.20
2018-09-11T21:29:34.126Z,64.10
2018-09-11T21:32:05.905Z,63.20
2018-09-11T21:34:37.946Z,62.70
2018-09-11T21:37:09.436Z,62.30
2018-09-11T21:39:42.212Z,61.80
2018-09-11T21:42:13.433Z,61.50
2018-09-11T21:44:45.492Z,61.90
2018-09-11T21:47:17.032Z,62.70
2018-09-11T21:49:48.951Z,62.90
2018-09-11T21:52:20.314Z,62.90
2018-09-11T21:54:52.412Z,61.90
2018-09-11T21:57:29.614Z,61.60
2018-09-11T22:00:01.522Z,62.20
2018-09-11T22:02:33.952Z,63.60
2018-09-11T22:05:05.431Z,62.70
2018-09-11T22:07:37.972Z,63.20
2018-09-11T22:10:12.192Z,63.20
2018-09-11T22:12:43.611Z,63.50
2018-09-11T22:15:15.675Z,63.50
2018-09-11T22:17:48.213Z,63.90
2018-09-11T22:20:20.013Z,64.10
2018-09-11T22:22:52.392Z,64.40
2018-09-11T22:25:24.891Z,64.60
2018-09-11T22:27:56.740Z,64.70
2018-09-11T22:30:28.831Z,64.90
2018-09-11T22:33:00.954Z,65.20
2018-09-11T22:35:33.592Z,65.30
2018-09-11T22:38:06.871Z,65.20
2018-09-11T22:40:39.093Z,65.20
2018-09-11T22:43:10.559Z,65.10
2018-09-11T22:45:42.671Z,65.40
2018-09-11T22:48:14.711Z,65.60
2018-09-11T22:50:47.332Z,65.70
2018-09-11T22:53:17.939Z,65.80
2018-09-11T22:55:50.142Z,66.00
2018-09-11T22:58:22.092Z,66.30
2018-09-11T23:00:54.831Z,66.00
2018-09-11T23:03:26.531Z,66.20
2018-09-11T23:05:58.171Z,66.50
2018-09-11T23:08:29.931Z,65.90
2018-09-11T23:11:01.811Z,65.80
2018-09-11T23:13:33.852Z,66.10
2018-09-11T23:16:05.992Z,65.60
2018-09-11T23:18:36.851Z,67.00
2018-09-11T23:21:08.779Z,66.50
2018-09-11T23:23:40.471Z,67.80
2018-09-11T23:26:15.714Z,68.00
2018-09-11T23:28:47.370Z,69.30
2018-09-11T23:31:19.838Z,68.90
2018-09-11T23:33:51.511Z,69.10
2018-09-11T23:36:24.331Z,69.30
2018-09-11T23:38:56.151Z,69.50
2018-09-11T23:41:28.471Z,69.10
2018-09-11T23:44:00.618Z,69.40
2018-09-11T23:46:32.351Z,68.60
2018-09-11T23:49:04.679Z,68.60
2018-09-11T23:51:36.378Z,69.00
2018-09-11T23:54:08.031Z,69.10
2018-09-11T23:56:40.132Z,69.50
2018-09-11T23:59:12.171Z,69.60
